sensor_id;sensor_type;location;lat;lon;timestamp;P1;durP1;ratioP1;P2;durP2;ratioP2
64052;SDS011;50299;49.524;8.536;2023-06-14T00:00:37;6.72;;;6.03;;
64052;SDS011;50299;49.524;8.536;2023-06-14T00:03:07;5.72;;;5.07;;
64052;SDS011;50299;49.524;8.536;2023-06-14T00:05:38;7.32;;;5.90;;
64052;SDS011;50299;49.524;8.536;2023-06-14T00:10:34;5.60;;;5.10;;
64052;SDS011;50299;49.524;8.536;2023-06-14T00:13:02;6.63;;;5.18;;
64052;SDS011;50299;49.524;8.536;2023-06-14T00:15:32;7.50;;;5.53;;
64052;SDS011;50299;49.524;8.536;2023-06-14T00:18:00;5.95;;;5.38;;
64052;SDS011;50299;49.524;8.536;2023-06-14T00:20:27;6.05;;;5.45;;
64052;SDS011;50299;49.524;8.536;2023-06-14T00:22:57;5.78;;;5.28;;
64052;SDS011;50299;49.524;8.536;2023-06-14T00:25:24;5.95;;;5.35;;
64052;SDS011;50299;49.524;8.536;2023-06-14T00:27:56;6.20;;;5.60;;
64052;SDS011;50299;49.524;8.536;2023-06-14T00:30:23;6.10;;;5.53;;
64052;SDS011;50299;49.524;8.536;2023-06-14T00:32:50;6.40;;;5.72;;
64052;SDS011;50299;49.524;8.536;2023-06-14T00:35:17;6.45;;;5.40;;
64052;SDS011;50299;49.524;8.536;2023-06-14T00:37:44;7.32;;;6.13;;
64052;SDS011;50299;49.524;8.536;2023-06-14T00:40:10;8.25;;;5.57;;
64052;SDS011;50299;49.524;8.536;2023-06-14T00:42:37;6.72;;;5.70;;
64052;SDS011;50299;49.524;8.536;2023-06-14T00:45:05;6.32;;;5.80;;
64052;SDS011;50299;49.524;8.536;2023-06-14T00:47:32;6.32;;;5.82;;
64052;SDS011;50299;49.524;8.536;2023-06-14T00:49:59;6.90;;;6.30;;
64052;SDS011;50299;49.524;8.536;2023-06-14T00:52:26;6.35;;;5.85;;
64052;SDS011;50299;49.524;8.536;2023-06-14T00:54:53;6.40;;;5.75;;
64052;SDS011;50299;49.524;8.536;2023-06-14T00:57:20;6.40;;;5.80;;
64052;SDS011;50299;49.524;8.536;2023-06-14T00:59:48;7.28;;;6.22;;
64052;SDS011;50299;49.524;8.536;2023-06-14T01:02:15;6.50;;;5.90;;
64052;SDS011;50299;49.524;8.536;2023-06-14T01:04:47;6.57;;;5.97;;
64052;SDS011;50299;49.524;8.536;2023-06-14T01:15:25;6.00;;;5.55;;
64052;SDS011;50299;49.524;8.536;2023-06-14T01:20:27;6.65;;;5.97;;
64052;SDS011;50299;49.524;8.536;2023-06-14T01:22:55;7.82;;;5.72;;
64052;SDS011;50299;49.524;8.536;2023-06-14T01:25:22;7.22;;;6.15;;
64052;SDS011;50299;49.524;8.536;2023-06-14T01:27:50;6.50;;;5.88;;
64052;SDS011;50299;49.524;8.536;2023-06-14T01:30:19;7.10;;;6.45;;
64052;SDS011;50299;49.524;8.536;2023-06-14T01:32:47;6.45;;;5.85;;
64052;SDS011;50299;49.524;8.536;2023-06-14T01:35:16;7.93;;;6.72;;
64052;SDS011;50299;49.524;8.536;2023-06-14T01:37:43;6.70;;;6.10;;
64052;SDS011;50299;49.524;8.536;2023-06-14T01:40:12;6.35;;;5.75;;
64052;SDS011;50299;49.524;8.536;2023-06-14T01:42:40;6.93;;;5.65;;
64052;SDS011;50299;49.524;8.536;2023-06-14T01:45:08;6.85;;;6.25;;
64052;SDS011;50299;49.524;8.536;2023-06-14T01:47:36;6.75;;;6.10;;
64052;SDS011;50299;49.524;8.536;2023-06-14T01:50:03;6.03;;;5.53;;
64052;SDS011;50299;49.524;8.536;2023-06-14T01:52:30;6.40;;;5.82;;
64052;SDS011;50299;49.524;8.536;2023-06-14T01:54:56;6.78;;;6.13;;
64052;SDS011;50299;49.524;8.536;2023-06-14T01:57:24;7.30;;;6.63;;
64052;SDS011;50299;49.524;8.536;2023-06-14T01:59:51;7.10;;;6.40;;
64052;SDS011;50299;49.524;8.536;2023-06-14T02:02:17;7.47;;;6.65;;
64052;SDS011;50299;49.524;8.536;2023-06-14T02:04:44;6.97;;;6.43;;
64052;SDS011;50299;49.524;8.536;2023-06-14T02:07:13;7.10;;;6.40;;
64052;SDS011;50299;49.524;8.536;2023-06-14T02:09:41;7.53;;;6.82;;
64052;SDS011;50299;49.524;8.536;2023-06-14T02:12:08;6.88;;;6.28;;
64052;SDS011;50299;49.524;8.536;2023-06-14T02:14:35;6.78;;;6.10;;
64052;SDS011;50299;49.524;8.536;2023-06-14T02:17:01;7.55;;;6.85;;
64052;SDS011;50299;49.524;8.536;2023-06-14T02:19:28;6.82;;;6.32;;
64052;SDS011;50299;49.524;8.536;2023-06-14T02:21:54;6.88;;;6.32;;
64052;SDS011;50299;49.524;8.536;2023-06-14T02:24:21;7.93;;;7.15;;
64052;SDS011;50299;49.524;8.536;2023-06-14T02:26:47;7.78;;;7.03;;
64052;SDS011;50299;49.524;8.536;2023-06-14T02:29:14;7.55;;;6.70;;
64052;SDS011;50299;49.524;8.536;2023-06-14T02:31:42;7.78;;;7.07;;
64052;SDS011;50299;49.524;8.536;2023-06-14T02:34:08;8.00;;;7.30;;
64052;SDS011;50299;49.524;8.536;2023-06-14T02:36:35;6.95;;;6.35;;
64052;SDS011;50299;49.524;8.536;2023-06-14T02:39:08;7.22;;;6.53;;
64052;SDS011;50299;49.524;8.536;2023-06-14T02:41:37;7.70;;;7.10;;
64052;SDS011;50299;49.524;8.536;2023-06-14T02:44:04;8.02;;;7.05;;
64052;SDS011;50299;49.524;8.536;2023-06-14T02:46:31;7.25;;;6.60;;
64052;SDS011;50299;49.524;8.536;2023-06-14T02:48:58;7.85;;;7.15;;
64052;SDS011;50299;49.524;8.536;2023-06-14T02:51:25;8.05;;;7.25;;
64052;SDS011;50299;49.524;8.536;2023-06-14T02:53:52;7.70;;;6.97;;
64052;SDS011;50299;49.524;8.536;2023-06-14T02:56:18;8.55;;;7.60;;
64052;SDS011;50299;49.524;8.536;2023-06-14T02:58:45;7.60;;;7.00;;
64052;SDS011;50299;49.524;8.536;2023-06-14T03:01:12;7.65;;;6.78;;
64052;SDS011;50299;49.524;8.536;2023-06-14T03:03:39;8.82;;;8.02;;
64052;SDS011;50299;49.524;8.536;2023-06-14T03:06:07;7.45;;;6.72;;
64052;SDS011;50299;49.524;8.536;2023-06-14T03:08:34;7.40;;;6.70;;
64052;SDS011;50299;49.524;8.536;2023-06-14T03:11:05;8.00;;;7.20;;
64052;SDS011;50299;49.524;8.536;2023-06-14T03:13:31;9.23;;;7.40;;
64052;SDS011;50299;49.524;8.536;2023-06-14T03:15:58;8.20;;;7.43;;
64052;SDS011;50299;49.524;8.536;2023-06-14T03:18:31;7.93;;;7.25;;
64052;SDS011;50299;49.524;8.536;2023-06-14T03:21:04;7.82;;;7.13;;
64052;SDS011;50299;49.524;8.536;2023-06-14T03:23:32;7.70;;;7.10;;
64052;SDS011;50299;49.524;8.536;2023-06-14T03:25:58;7.50;;;6.88;;
64052;SDS011;50299;49.524;8.536;2023-06-14T03:28:25;8.38;;;7.68;;
64052;SDS011;50299;49.524;8.536;2023-06-14T03:30:52;8.10;;;6.90;;
64052;SDS011;50299;49.524;8.536;2023-06-14T03:33:18;8.07;;;7.32;;
64052;SDS011;50299;49.524;8.536;2023-06-14T03:35:45;8.00;;;7.18;;
64052;SDS011;50299;49.524;8.536;2023-06-14T03:38:11;7.82;;;7.05;;
64052;SDS011;50299;49.524;8.536;2023-06-14T03:40:38;7.60;;;6.82;;
64052;SDS011;50299;49.524;8.536;2023-06-14T03:43:05;7.53;;;6.93;;
64052;SDS011;50299;49.524;8.536;2023-06-14T03:45:31;7.68;;;6.97;;
64052;SDS011;50299;49.524;8.536;2023-06-14T03:48:00;8.05;;;7.30;;
64052;SDS011;50299;49.524;8.536;2023-06-14T03:50:27;8.38;;;7.32;;
64052;SDS011;50299;49.524;8.536;2023-06-14T03:52:53;8.20;;;7.40;;
64052;SDS011;50299;49.524;8.536;2023-06-14T03:55:20;9.43;;;7.40;;
64052;SDS011;50299;49.524;8.536;2023-06-14T03:58:06;8.32;;;7.53;;
64052;SDS011;50299;49.524;8.536;2023-06-14T04:00:33;9.68;;;8.77;;
64052;SDS011;50299;49.524;8.536;2023-06-14T04:02:59;8.00;;;7.05;;
64052;SDS011;50299;49.524;8.536;2023-06-14T04:05:26;8.05;;;7.25;;
64052;SDS011;50299;49.524;8.536;2023-06-14T04:07:53;8.15;;;7.38;;
64052;SDS011;50299;49.524;8.536;2023-06-14T04:10:22;13.43;;;8.55;;
64052;SDS011;50299;49.524;8.536;2023-06-14T04:12:48;8.13;;;6.88;;
64052;SDS011;50299;49.524;8.536;2023-06-14T04:15:15;8.50;;;7.63;;
64052;SDS011;50299;49.524;8.536;2023-06-14T04:17:47;7.95;;;7.15;;
64052;SDS011;50299;49.524;8.536;2023-06-14T04:20:14;7.88;;;6.95;;
64052;SDS011;50299;49.524;8.536;2023-06-14T04:22:40;8.65;;;7.15;;
64052;SDS011;50299;49.524;8.536;2023-06-14T04:25:07;9.25;;;7.20;;
64052;SDS011;50299;49.524;8.536;2023-06-14T04:27:34;8.38;;;6.97;;
64052;SDS011;50299;49.524;8.536;2023-06-14T04:30:03;9.45;;;6.90;;
64052;SDS011;50299;49.524;8.536;2023-06-14T04:32:33;8.02;;;7.18;;
64052;SDS011;50299;49.524;8.536;2023-06-14T04:35:02;6.80;;;6.20;;
64052;SDS011;50299;49.524;8.536;2023-06-14T04:37:29;7.72;;;6.93;;
64052;SDS011;50299;49.524;8.536;2023-06-14T04:39:56;9.35;;;6.68;;
64052;SDS011;50299;49.524;8.536;2023-06-14T04:42:24;8.57;;;6.88;;
64052;SDS011;50299;49.524;8.536;2023-06-14T04:44:57;7.63;;;6.43;;
64052;SDS011;50299;49.524;8.536;2023-06-14T04:47:24;6.65;;;6.05;;
64052;SDS011;50299;49.524;8.536;2023-06-14T04:49:58;7.13;;;6.53;;
64052;SDS011;50299;49.524;8.536;2023-06-14T04:52:27;7.40;;;6.15;;
64052;SDS011;50299;49.524;8.536;2023-06-14T04:54:55;8.10;;;6.40;;
64052;SDS011;50299;49.524;8.536;2023-06-14T04:57:22;6.72;;;6.13;;
64052;SDS011;50299;49.524;8.536;2023-06-14T04:59:51;8.07;;;6.13;;
64052;SDS011;50299;49.524;8.536;2023-06-14T05:02:25;7.53;;;6.03;;
64052;SDS011;50299;49.524;8.536;2023-06-14T05:04:54;6.47;;;5.88;;
64052;SDS011;50299;49.524;8.536;2023-06-14T05:07:23;7.30;;;5.90;;
64052;SDS011;50299;49.524;8.536;2023-06-14T05:09:50;6.60;;;5.82;;
64052;SDS011;50299;49.524;8.536;2023-06-14T05:12:16;6.88;;;6.18;;
64052;SDS011;50299;49.524;8.536;2023-06-14T05:14:45;7.03;;;6.15;;
64052;SDS011;50299;49.524;8.536;2023-06-14T05:17:11;10.45;;;6.15;;
64052;SDS011;50299;49.524;8.536;2023-06-14T05:19:38;6.05;;;5.55;;
64052;SDS011;50299;49.524;8.536;2023-06-14T05:22:05;6.32;;;5.68;;
64052;SDS011;50299;49.524;8.536;2023-06-14T05:24:31;5.88;;;5.47;;
64052;SDS011;50299;49.524;8.536;2023-06-14T05:26:58;7.28;;;5.90;;
64052;SDS011;50299;49.524;8.536;2023-06-14T05:29:25;9.85;;;6.28;;
64052;SDS011;50299;49.524;8.536;2023-06-14T05:31:55;12.57;;;6.72;;
64052;SDS011;50299;49.524;8.536;2023-06-14T05:34:22;9.48;;;5.65;;
64052;SDS011;50299;49.524;8.536;2023-06-14T05:36:48;6.45;;;5.72;;
64052;SDS011;50299;49.524;8.536;2023-06-14T05:39:15;8.02;;;5.95;;
64052;SDS011;50299;49.524;8.536;2023-06-14T05:41:42;6.95;;;5.97;;
64052;SDS011;50299;49.524;8.536;2023-06-14T05:44:08;6.78;;;5.97;;
64052;SDS011;50299;49.524;8.536;2023-06-14T05:46:35;5.70;;;5.13;;
64052;SDS011;50299;49.524;8.536;2023-06-14T05:49:01;5.93;;;5.07;;
64052;SDS011;50299;49.524;8.536;2023-06-14T05:51:28;7.03;;;5.22;;
64052;SDS011;50299;49.524;8.536;2023-06-14T05:53:55;5.38;;;4.40;;
64052;SDS011;50299;49.524;8.536;2023-06-14T05:56:25;5.00;;;4.60;;
64052;SDS011;50299;49.524;8.536;2023-06-14T05:58:55;7.93;;;5.55;;
64052;SDS011;50299;49.524;8.536;2023-06-14T06:01:21;7.45;;;5.32;;
64052;SDS011;50299;49.524;8.536;2023-06-14T06:03:48;7.55;;;5.32;;
64052;SDS011;50299;49.524;8.536;2023-06-14T06:06:17;6.88;;;5.82;;
64052;SDS011;50299;49.524;8.536;2023-06-14T06:08:46;8.18;;;5.25;;
64052;SDS011;50299;49.524;8.536;2023-06-14T06:11:15;6.93;;;5.03;;
64052;SDS011;50299;49.524;8.536;2023-06-14T06:13:42;12.40;;;5.78;;
64052;SDS011;50299;49.524;8.536;2023-06-14T06:16:08;7.45;;;5.57;;
64052;SDS011;50299;49.524;8.536;2023-06-14T06:18:35;5.45;;;4.85;;
64052;SDS011;50299;49.524;8.536;2023-06-14T06:21:03;5.88;;;5.22;;
64052;SDS011;50299;49.524;8.536;2023-06-14T06:23:33;5.50;;;4.97;;
64052;SDS011;50299;49.524;8.536;2023-06-14T06:25:59;7.82;;;4.60;;
64052;SDS011;50299;49.524;8.536;2023-06-14T06:28:26;8.25;;;5.20;;
64052;SDS011;50299;49.524;8.536;2023-06-14T06:30:52;5.75;;;5.20;;
64052;SDS011;50299;49.524;8.536;2023-06-14T06:33:19;6.75;;;4.90;;
64052;SDS011;50299;49.524;8.536;2023-06-14T06:35:49;5.60;;;5.00;;
64052;SDS011;50299;49.524;8.536;2023-06-14T06:38:15;9.73;;;5.30;;
64052;SDS011;50299;49.524;8.536;2023-06-14T06:40:44;7.38;;;5.25;;
64052;SDS011;50299;49.524;8.536;2023-06-14T06:43:13;5.25;;;4.75;;
64052;SDS011;50299;49.524;8.536;2023-06-14T06:45:40;5.88;;;5.00;;
64052;SDS011;50299;49.524;8.536;2023-06-14T06:48:06;5.22;;;4.72;;
64052;SDS011;50299;49.524;8.536;2023-06-14T06:50:33;5.43;;;4.90;;
64052;SDS011;50299;49.524;8.536;2023-06-14T06:52:59;5.30;;;4.85;;
64052;SDS011;50299;49.524;8.536;2023-06-14T06:55:26;6.07;;;4.97;;
64052;SDS011;50299;49.524;8.536;2023-06-14T06:57:54;5.35;;;4.68;;
64052;SDS011;50299;49.524;8.536;2023-06-14T07:00:21;6.45;;;4.95;;
64052;SDS011;50299;49.524;8.536;2023-06-14T07:02:47;6.03;;;5.00;;
64052;SDS011;50299;49.524;8.536;2023-06-14T07:05:14;8.10;;;5.05;;
64052;SDS011;50299;49.524;8.536;2023-06-14T07:07:41;6.30;;;4.80;;
64052;SDS011;50299;49.524;8.536;2023-06-14T07:10:08;6.95;;;4.75;;
64052;SDS011;50299;49.524;8.536;2023-06-14T07:12:35;7.00;;;4.25;;
64052;SDS011;50299;49.524;8.536;2023-06-14T07:15:06;5.07;;;4.57;;
64052;SDS011;50299;49.524;8.536;2023-06-14T07:17:34;5.53;;;4.45;;
64052;SDS011;50299;49.524;8.536;2023-06-14T07:20:02;7.45;;;4.43;;
64052;SDS011;50299;49.524;8.536;2023-06-14T07:22:41;4.85;;;4.45;;
64052;SDS011;50299;49.524;8.536;2023-06-14T07:25:09;6.22;;;4.60;;
64052;SDS011;50299;49.524;8.536;2023-06-14T07:27:41;7.53;;;4.72;;
64052;SDS011;50299;49.524;8.536;2023-06-14T07:30:09;4.85;;;4.28;;
64052;SDS011;50299;49.524;8.536;2023-06-14T07:32:36;4.85;;;4.22;;
64052;SDS011;50299;49.524;8.536;2023-06-14T07:35:02;6.18;;;4.35;;
64052;SDS011;50299;49.524;8.536;2023-06-14T07:37:29;4.97;;;4.30;;
64052;SDS011;50299;49.524;8.536;2023-06-14T07:39:55;5.53;;;3.92;;
64052;SDS011;50299;49.524;8.536;2023-06-14T07:42:25;4.93;;;4.40;;
64052;SDS011;50299;49.524;8.536;2023-06-14T07:44:52;7.38;;;4.10;;
64052;SDS011;50299;49.524;8.536;2023-06-14T07:47:19;4.47;;;4.07;;
64052;SDS011;50299;49.524;8.536;2023-06-14T07:49:46;4.90;;;4.40;;
64052;SDS011;50299;49.524;8.536;2023-06-14T07:52:13;9.38;;;5.38;;
64052;SDS011;50299;49.524;8.536;2023-06-14T07:54:41;4.45;;;4.10;;
64052;SDS011;50299;49.524;8.536;2023-06-14T07:57:08;5.60;;;4.22;;
64052;SDS011;50299;49.524;8.536;2023-06-14T07:59:35;6.00;;;4.72;;
64052;SDS011;50299;49.524;8.536;2023-06-14T08:02:01;5.63;;;4.47;;
64052;SDS011;50299;49.524;8.536;2023-06-14T08:04:28;4.95;;;4.50;;
64052;SDS011;50299;49.524;8.536;2023-06-14T08:06:55;5.28;;;4.22;;
64052;SDS011;50299;49.524;8.536;2023-06-14T08:09:22;7.53;;;5.13;;
64052;SDS011;50299;49.524;8.536;2023-06-14T08:11:49;5.75;;;4.43;;
64052;SDS011;50299;49.524;8.536;2023-06-14T08:14:15;6.32;;;4.20;;
64052;SDS011;50299;49.524;8.536;2023-06-14T08:16:42;5.70;;;4.40;;
64052;SDS011;50299;49.524;8.536;2023-06-14T08:19:09;4.78;;;4.25;;
64052;SDS011;50299;49.524;8.536;2023-06-14T08:21:35;6.03;;;4.47;;
64052;SDS011;50299;49.524;8.536;2023-06-14T08:24:02;5.88;;;4.70;;
64052;SDS011;50299;49.524;8.536;2023-06-14T08:26:30;4.40;;;4.00;;
64052;SDS011;50299;49.524;8.536;2023-06-14T08:28:58;6.80;;;4.75;;
64052;SDS011;50299;49.524;8.536;2023-06-14T08:31:24;4.80;;;3.97;;
64052;SDS011;50299;49.524;8.536;2023-06-14T08:33:51;14.60;;;5.93;;
64052;SDS011;50299;49.524;8.536;2023-06-14T08:36:18;4.43;;;4.03;;
64052;SDS011;50299;49.524;8.536;2023-06-14T08:38:44;7.90;;;5.13;;
64052;SDS011;50299;49.524;8.536;2023-06-14T08:41:11;6.82;;;4.30;;
64052;SDS011;50299;49.524;8.536;2023-06-14T08:43:39;5.82;;;4.00;;
64052;SDS011;50299;49.524;8.536;2023-06-14T08:46:06;5.30;;;3.90;;
64052;SDS011;50299;49.524;8.536;2023-06-14T08:48:36;8.85;;;4.50;;
64052;SDS011;50299;49.524;8.536;2023-06-14T08:51:03;5.55;;;3.78;;
64052;SDS011;50299;49.524;8.536;2023-06-14T08:53:31;4.80;;;4.20;;
64052;SDS011;50299;49.524;8.536;2023-06-14T08:56:04;5.82;;;3.90;;
64052;SDS011;50299;49.524;8.536;2023-06-14T08:58:31;6.10;;;3.72;;
64052;SDS011;50299;49.524;8.536;2023-06-14T09:01:03;4.75;;;3.85;;
64052;SDS011;50299;49.524;8.536;2023-06-14T09:03:30;4.65;;;3.30;;
64052;SDS011;50299;49.524;8.536;2023-06-14T09:05:57;5.70;;;3.75;;
64052;SDS011;50299;49.524;8.536;2023-06-14T09:08:25;4.93;;;3.80;;
64052;SDS011;50299;49.524;8.536;2023-06-14T09:10:52;3.58;;;3.28;;
64052;SDS011;50299;49.524;8.536;2023-06-14T09:13:19;4.20;;;3.22;;
64052;SDS011;50299;49.524;8.536;2023-06-14T09:15:48;3.83;;;3.53;;
64052;SDS011;50299;49.524;8.536;2023-06-14T09:18:14;3.85;;;3.10;;
64052;SDS011;50299;49.524;8.536;2023-06-14T09:20:41;6.95;;;4.22;;
64052;SDS011;50299;49.524;8.536;2023-06-14T09:23:07;3.63;;;3.33;;
64052;SDS011;50299;49.524;8.536;2023-06-14T09:25:43;4.60;;;3.47;;
64052;SDS011;50299;49.524;8.536;2023-06-14T09:28:10;3.80;;;3.50;;
64052;SDS011;50299;49.524;8.536;2023-06-14T09:30:37;4.55;;;4.03;;
64052;SDS011;50299;49.524;8.536;2023-06-14T09:33:04;4.03;;;3.58;;
64052;SDS011;50299;49.524;8.536;2023-06-14T09:35:31;4.50;;;4.10;;
64052;SDS011;50299;49.524;8.536;2023-06-14T09:37:58;6.43;;;3.70;;
64052;SDS011;50299;49.524;8.536;2023-06-14T09:40:26;4.28;;;3.40;;
64052;SDS011;50299;49.524;8.536;2023-06-14T09:42:52;3.97;;;3.55;;
64052;SDS011;50299;49.524;8.536;2023-06-14T09:45:19;4.55;;;3.90;;
64052;SDS011;50299;49.524;8.536;2023-06-14T09:50:31;4.53;;;3.28;;
64052;SDS011;50299;49.524;8.536;2023-06-14T09:52:59;3.60;;;3.30;;
64052;SDS011;50299;49.524;8.536;2023-06-14T09:55:39;3.95;;;3.38;;
64052;SDS011;50299;49.524;8.536;2023-06-14T09:58:07;4.45;;;4.03;;
64052;SDS011;50299;49.524;8.536;2023-06-14T10:00:36;3.83;;;3.53;;
64052;SDS011;50299;49.524;8.536;2023-06-14T10:05:44;4.10;;;3.55;;
64052;SDS011;50299;49.524;8.536;2023-06-14T10:08:16;3.70;;;3.40;;
64052;SDS011;50299;49.524;8.536;2023-06-14T10:10:45;6.03;;;3.72;;
64052;SDS011;50299;49.524;8.536;2023-06-14T10:13:12;6.28;;;3.53;;
64052;SDS011;50299;49.524;8.536;2023-06-14T10:15:54;3.92;;;3.55;;
64052;SDS011;50299;49.524;8.536;2023-06-14T10:18:43;6.07;;;3.60;;
64052;SDS011;50299;49.524;8.536;2023-06-14T10:24:03;3.78;;;3.38;;
64052;SDS011;50299;49.524;8.536;2023-06-14T10:26:33;9.20;;;3.10;;
64052;SDS011;50299;49.524;8.536;2023-06-14T10:29:00;4.72;;;3.55;;
64052;SDS011;50299;49.524;8.536;2023-06-14T10:31:45;4.65;;;3.85;;
64052;SDS011;50299;49.524;8.536;2023-06-14T10:34:29;3.70;;;3.45;;
64052;SDS011;50299;49.524;8.536;2023-06-14T10:39:32;3.78;;;3.47;;
64052;SDS011;50299;49.524;8.536;2023-06-14T10:42:04;3.63;;;3.13;;
64052;SDS011;50299;49.524;8.536;2023-06-14T10:44:33;3.50;;;3.20;;
64052;SDS011;50299;49.524;8.536;2023-06-14T10:47:08;6.38;;;3.67;;
64052;SDS011;50299;49.524;8.536;2023-06-14T10:49:37;4.70;;;3.38;;
64052;SDS011;50299;49.524;8.536;2023-06-14T10:52:12;3.92;;;3.63;;
64052;SDS011;50299;49.524;8.536;2023-06-14T10:57:52;4.18;;;3.70;;
64052;SDS011;50299;49.524;8.536;2023-06-14T11:00:25;3.90;;;3.60;;
64052;SDS011;50299;49.524;8.536;2023-06-14T11:05:35;6.68;;;3.95;;
64052;SDS011;50299;49.524;8.536;2023-06-14T11:10:43;3.97;;;3.55;;
64052;SDS011;50299;49.524;8.536;2023-06-14T11:13:11;4.00;;;3.70;;
64052;SDS011;50299;49.524;8.536;2023-06-14T11:15:38;4.15;;;3.38;;
64052;SDS011;50299;49.524;8.536;2023-06-14T11:18:10;4.15;;;3.35;;
64052;SDS011;50299;49.524;8.536;2023-06-14T11:20:39;12.63;;;4.85;;
64052;SDS011;50299;49.524;8.536;2023-06-14T11:23:06;5.32;;;3.40;;
64052;SDS011;50299;49.524;8.536;2023-06-14T11:25:32;4.10;;;3.80;;
64052;SDS011;50299;49.524;8.536;2023-06-14T11:27:59;5.22;;;3.67;;
64052;SDS011;50299;49.524;8.536;2023-06-14T11:30:29;3.70;;;3.40;;
64052;SDS011;50299;49.524;8.536;2023-06-14T11:32:57;3.90;;;3.50;;
64052;SDS011;50299;49.524;8.536;2023-06-14T11:35:24;5.10;;;3.58;;
64052;SDS011;50299;49.524;8.536;2023-06-14T11:37:52;5.82;;;3.67;;
64052;SDS011;50299;49.524;8.536;2023-06-14T11:40:20;5.38;;;3.90;;
64052;SDS011;50299;49.524;8.536;2023-06-14T11:42:54;3.97;;;3.65;;
64052;SDS011;50299;49.524;8.536;2023-06-14T11:45:24;3.50;;;3.20;;
64052;SDS011;50299;49.524;8.536;2023-06-14T11:47:51;3.80;;;3.45;;
64052;SDS011;50299;49.524;8.536;2023-06-14T11:50:18;4.40;;;3.67;;
64052;SDS011;50299;49.524;8.536;2023-06-14T11:52:44;4.13;;;3.70;;
64052;SDS011;50299;49.524;8.536;2023-06-14T11:55:11;3.47;;;3.05;;
64052;SDS011;50299;49.524;8.536;2023-06-14T11:57:38;3.50;;;3.22;;
64052;SDS011;50299;49.524;8.536;2023-06-14T12:00:08;3.72;;;3.35;;
64052;SDS011;50299;49.524;8.536;2023-06-14T12:02:38;3.97;;;3.58;;
64052;SDS011;50299;49.524;8.536;2023-06-14T12:05:07;13.77;;;5.05;;
64052;SDS011;50299;49.524;8.536;2023-06-14T12:07:37;4.35;;;3.95;;
64052;SDS011;50299;49.524;8.536;2023-06-14T12:10:06;4.10;;;3.28;;
64052;SDS011;50299;49.524;8.536;2023-06-14T12:12:37;3.63;;;3.33;;
64052;SDS011;50299;49.524;8.536;2023-06-14T12:15:05;4.70;;;3.53;;
64052;SDS011;50299;49.524;8.536;2023-06-14T12:17:34;4.18;;;3.78;;
64052;SDS011;50299;49.524;8.536;2023-06-14T12:20:08;9.73;;;3.67;;
64052;SDS011;50299;49.524;8.536;2023-06-14T12:22:47;5.60;;;3.67;;
64052;SDS011;50299;49.524;8.536;2023-06-14T12:25:23;3.72;;;3.28;;
64052;SDS011;50299;49.524;8.536;2023-06-14T12:27:54;5.15;;;3.35;;
64052;SDS011;50299;49.524;8.536;2023-06-14T12:30:21;4.05;;;3.53;;
64052;SDS011;50299;49.524;8.536;2023-06-14T12:32:48;7.60;;;4.22;;
64052;SDS011;50299;49.524;8.536;2023-06-14T12:35:15;5.75;;;3.25;;
64052;SDS011;50299;49.524;8.536;2023-06-14T12:37:42;6.60;;;3.90;;
64052;SDS011;50299;49.524;8.536;2023-06-14T12:40:08;13.55;;;4.80;;
64052;SDS011;50299;49.524;8.536;2023-06-14T12:42:35;3.72;;;3.42;;
64052;SDS011;50299;49.524;8.536;2023-06-14T12:45:01;4.05;;;3.70;;
64052;SDS011;50299;49.524;8.536;2023-06-14T12:47:29;3.75;;;3.35;;
64052;SDS011;50299;49.524;8.536;2023-06-14T12:49:56;6.05;;;3.08;;
64052;SDS011;50299;49.524;8.536;2023-06-14T12:52:22;3.75;;;3.45;;
64052;SDS011;50299;49.524;8.536;2023-06-14T12:54:49;3.72;;;3.47;;
64052;SDS011;50299;49.524;8.536;2023-06-14T12:57:16;3.40;;;3.05;;
64052;SDS011;50299;49.524;8.536;2023-06-14T12:59:42;5.35;;;3.70;;
64052;SDS011;50299;49.524;8.536;2023-06-14T13:02:19;4.95;;;3.67;;
64052;SDS011;50299;49.524;8.536;2023-06-14T13:04:51;4.10;;;3.60;;
64052;SDS011;50299;49.524;8.536;2023-06-14T13:07:18;3.83;;;3.53;;
64052;SDS011;50299;49.524;8.536;2023-06-14T13:09:45;3.90;;;3.60;;
64052;SDS011;50299;49.524;8.536;2023-06-14T13:12:11;5.32;;;3.28;;
64052;SDS011;50299;49.524;8.536;2023-06-14T13:14:38;3.80;;;3.50;;
64052;SDS011;50299;49.524;8.536;2023-06-14T13:17:09;6.15;;;3.15;;
64052;SDS011;50299;49.524;8.536;2023-06-14T13:19:37;4.45;;;3.22;;
64052;SDS011;50299;49.524;8.536;2023-06-14T13:22:04;3.70;;;3.40;;
64052;SDS011;50299;49.524;8.536;2023-06-14T13:24:31;4.47;;;4.10;;
64052;SDS011;50299;49.524;8.536;2023-06-14T13:26:57;4.53;;;3.60;;
64052;SDS011;50299;49.524;8.536;2023-06-14T13:29:30;3.65;;;3.35;;
64052;SDS011;50299;49.524;8.536;2023-06-14T13:31:57;5.05;;;4.20;;
64052;SDS011;50299;49.524;8.536;2023-06-14T13:34:24;4.10;;;3.67;;
64052;SDS011;50299;49.524;8.536;2023-06-14T13:36:54;4.10;;;3.80;;
64052;SDS011;50299;49.524;8.536;2023-06-14T13:39:20;4.45;;;4.05;;
64052;SDS011;50299;49.524;8.536;2023-06-14T13:41:47;4.03;;;3.70;;
64052;SDS011;50299;49.524;8.536;2023-06-14T13:44:14;4.07;;;3.47;;
64052;SDS011;50299;49.524;8.536;2023-06-14T13:46:44;4.60;;;3.60;;
64052;SDS011;50299;49.524;8.536;2023-06-14T13:49:11;8.90;;;3.97;;
64052;SDS011;50299;49.524;8.536;2023-06-14T13:51:40;4.10;;;3.65;;
64052;SDS011;50299;49.524;8.536;2023-06-14T13:54:07;4.55;;;3.30;;
64052;SDS011;50299;49.524;8.536;2023-06-14T13:56:37;4.13;;;3.72;;
64052;SDS011;50299;49.524;8.536;2023-06-14T13:59:04;4.25;;;3.88;;
64052;SDS011;50299;49.524;8.536;2023-06-14T14:01:30;4.38;;;3.63;;
64052;SDS011;50299;49.524;8.536;2023-06-14T14:03:57;6.45;;;3.80;;
64052;SDS011;50299;49.524;8.536;2023-06-14T14:06:25;4.20;;;3.80;;
64052;SDS011;50299;49.524;8.536;2023-06-14T14:08:51;4.22;;;3.83;;
64052;SDS011;50299;49.524;8.536;2023-06-14T14:11:19;5.57;;;3.85;;
64052;SDS011;50299;49.524;8.536;2023-06-14T14:13:46;4.78;;;3.75;;
64052;SDS011;50299;49.524;8.536;2023-06-14T14:16:13;4.05;;;3.75;;
64052;SDS011;50299;49.524;8.536;2023-06-14T14:18:40;6.25;;;4.10;;
64052;SDS011;50299;49.524;8.536;2023-06-14T14:21:07;4.57;;;4.10;;
64052;SDS011;50299;49.524;8.536;2023-06-14T14:23:34;4.35;;;4.05;;
64052;SDS011;50299;49.524;8.536;2023-06-14T14:26:01;4.82;;;3.85;;
64052;SDS011;50299;49.524;8.536;2023-06-14T14:28:30;7.32;;;4.70;;
64052;SDS011;50299;49.524;8.536;2023-06-14T14:30:58;4.30;;;4.00;;
64052;SDS011;50299;49.524;8.536;2023-06-14T14:33:25;4.10;;;3.67;;
64052;SDS011;50299;49.524;8.536;2023-06-14T14:35:52;5.30;;;3.50;;
64052;SDS011;50299;49.524;8.536;2023-06-14T14:38:24;3.58;;;3.33;;
64052;SDS011;50299;49.524;8.536;2023-06-14T14:40:50;4.53;;;4.13;;
64052;SDS011;50299;49.524;8.536;2023-06-14T14:43:17;4.53;;;3.78;;
64052;SDS011;50299;49.524;8.536;2023-06-14T14:45:46;5.03;;;3.58;;
64052;SDS011;50299;49.524;8.536;2023-06-14T14:48:13;4.38;;;3.97;;
64052;SDS011;50299;49.524;8.536;2023-06-14T14:50:39;5.75;;;4.15;;
64052;SDS011;50299;49.524;8.536;2023-06-14T14:53:06;4.00;;;3.70;;
64052;SDS011;50299;49.524;8.536;2023-06-14T14:55:33;4.10;;;3.80;;
64052;SDS011;50299;49.524;8.536;2023-06-14T14:58:02;4.10;;;3.70;;
64052;SDS011;50299;49.524;8.536;2023-06-14T15:00:29;4.43;;;3.65;;
64052;SDS011;50299;49.524;8.536;2023-06-14T15:02:56;4.00;;;3.70;;
64052;SDS011;50299;49.524;8.536;2023-06-14T15:05:23;5.35;;;3.83;;
64052;SDS011;50299;49.524;8.536;2023-06-14T15:07:50;4.70;;;4.22;;
64052;SDS011;50299;49.524;8.536;2023-06-14T15:10:16;5.35;;;3.70;;
64052;SDS011;50299;49.524;8.536;2023-06-14T15:12:43;3.83;;;3.50;;
64052;SDS011;50299;49.524;8.536;2023-06-14T15:15:10;4.15;;;3.65;;
64052;SDS011;50299;49.524;8.536;2023-06-14T15:17:36;4.15;;;3.35;;
64052;SDS011;50299;49.524;8.536;2023-06-14T15:20:03;3.88;;;3.55;;
64052;SDS011;50299;49.524;8.536;2023-06-14T15:22:32;3.72;;;3.42;;
64052;SDS011;50299;49.524;8.536;2023-06-14T15:24:58;4.93;;;4.00;;